Time;durP1;ratioP1;P1;durP2;ratioP2;P2;SDS_P1;SDS_P2;PMS_P1;PMS_P2;Temp;Humidity;BMP_temperature;BMP_pressure;BME280_temperature;BME280_humidity;BME280_pressure;Samples;Min_cycle;Max_cycle;Signal;HPM_P1;HPM_P2
2024/03/27 00:00:42;;;;;;;8.20;6.43;;;11.00;99.90;;;;;;5072636;28;20594;-58
2024/03/27 00:03:08;;;;;;;7.33;5.70;;;11.00;99.90;;;;;;5075253;28;20667;-58
2024/03/27 00:05:36;;;;;;;9.07;6.20;;;11.00;99.90;;;;;;5072976;28;20525;-58
2024/03/27 00:08:02;;;;;;;8.60;5.80;;;11.00;99.90;;;;;;5073506;28;20202;-58
2024/03/27 00:10:28;;;;;;;6.73;5.80;;;11.00;99.90;;;;;;5072950;28;20207;-58
2024/03/27 00:12:54;;;;;;;6.20;5.60;;;11.00;99.90;;;;;;5069471;28;20209;-58
2024/03/27 00:15:20;;;;;;;6.20;5.30;;;11.10;99.90;;;;;;5074633;28;20247;-58
2024/03/27 00:17:47;;;;;;;7.00;6.10;;;11.10;99.90;;;;;;5077197;28;20203;-58
2024/03/27 00:20:13;;;;;;;6.20;5.37;;;11.10;99.90;;;;;;5072336;28;20216;-58
2024/03/27 00:22:39;;;;;;;7.67;5.93;;;11.10;99.90;;;;;;5073977;28;20206;-58
2024/03/27 00:25:05;;;;;;;11.17;5.93;;;11.10;99.90;;;;;;5072492;28;20201;-58
2024/03/27 00:27:32;;;;;;;6.33;4.67;;;11.20;99.90;;;;;;5071326;28;20197;-58
2024/03/27 00:29:58;;;;;;;5.67;5.10;;;11.20;99.90;;;;;;5077136;28;20201;-58
2024/03/27 00:32:25;;;;;;;8.27;5.20;;;11.20;99.90;;;;;;5075029;28;20214;-57
2024/03/27 00:34:51;;;;;;;5.40;4.90;;;11.20;99.90;;;;;;5075988;28;20240;-58
2024/03/27 00:37:17;;;;;;;5.03;4.53;;;11.20;99.90;;;;;;5075350;28;20192;-57
2024/03/27 00:39:43;;;;;;;10.43;5.77;;;11.20;99.90;;;;;;5073834;28;20255;-58
2024/03/27 00:42:09;;;;;;;6.80;5.20;;;11.20;99.90;;;;;;5057919;28;20657;-58
2024/03/27 00:44:35;;;;;;;7.10;6.40;;;11.20;99.90;;;;;;5070396;28;20221;-58
2024/03/27 00:47:01;;;;;;;6.63;5.70;;;11.30;99.90;;;;;;5071099;28;20193;-58
2024/03/27 00:49:27;;;;;;;11.10;7.63;;;11.30;99.90;;;;;;5071294;28;20213;-58
2024/03/27 00:51:53;;;;;;;6.37;5.80;;;11.30;99.90;;;;;;5066556;28;20197;-58
2024/03/27 00:54:20;;;;;;;5.50;5.00;;;11.30;99.90;;;;;;5070451;28;20648;-58
2024/03/27 00:56:46;;;;;;;5.70;5.20;;;11.20;99.90;;;;;;5072703;28;20591;-58
2024/03/27 00:59:12;;;;;;;7.07;5.10;;;11.30;99.90;;;;;;5074584;28;20664;-57
2024/03/27 01:01:38;;;;;;;5.47;4.83;;;11.20;99.90;;;;;;5076469;28;20227;-58
2024/03/27 01:04:04;;;;;;;7.33;5.20;;;11.20;99.90;;;;;;5078663;28;20572;-58
2024/03/27 01:06:30;;;;;;;5.10;4.60;;;11.20;99.90;;;;;;5077154;28;20197;-58
2024/03/27 01:08:57;;;;;;;6.10;5.50;;;11.20;99.90;;;;;;5078078;28;20220;-58
2024/03/27 01:11:23;;;;;;;8.40;5.20;;;11.30;99.90;;;;;;5079094;28;20196;-58
2024/03/27 01:13:50;;;;;;;5.67;5.17;;;11.30;99.90;;;;;;5077364;28;20215;-58
2024/03/27 01:16:16;;;;;;;7.37;5.23;;;11.30;99.90;;;;;;5076821;28;20216;-58
2024/03/27 01:18:42;;;;;;;11.97;5.80;;;11.30;99.90;;;;;;5076167;28;20675;-58
2024/03/27 01:21:08;;;;;;;8.77;5.87;;;11.30;99.90;;;;;;5078013;28;20594;-57
2024/03/27 01:23:34;;;;;;;6.27;5.37;;;11.30;99.90;;;;;;5078078;28;20536;-58
2024/03/27 01:26:04;;;;;;;6.43;5.77;;;11.30;99.90;;;;;;5075741;28;20450;-58
2024/03/27 01:28:30;;;;;;;9.33;5.83;;;11.30;99.90;;;;;;5076672;28;20203;-58
2024/03/27 01:30:56;;;;;;;6.30;5.70;;;11.30;99.90;;;;;;5071219;28;20202;-58
2024/03/27 01:33:22;;;;;;;10.83;6.07;;;11.30;99.90;;;;;;5077500;28;20207;-58
2024/03/27 01:35:50;;;;;;;9.03;6.30;;;11.30;99.90;;;;;;5075194;28;20241;-58
2024/03/27 01:38:16;;;;;;;8.80;6.37;;;11.30;99.90;;;;;;5074762;28;20654;-58
2024/03/27 01:40:42;;;;;;;7.20;6.50;;;11.30;99.90;;;;;;5075616;28;20551;-58
2024/03/27 01:43:08;;;;;;;9.03;6.47;;;11.20;99.90;;;;;;5075276;28;20193;-58
2024/03/27 01:45:35;;;;;;;8.47;6.27;;;11.20;99.90;;;;;;5065679;28;20207;-58
2024/03/27 01:48:02;;;;;;;10.13;6.17;;;11.30;99.90;;;;;;5077343;28;20224;-57
2024/03/27 01:50:29;;;;;;;8.47;7.43;;;11.20;99.90;;;;;;5073038;28;20204;-58
2024/03/27 01:52:59;;;;;;;10.00;6.97;;;11.30;99.90;;;;;;5077607;28;20205;-58
2024/03/27 01:55:26;;;;;;;9.93;7.00;;;11.30;99.90;;;;;;5074840;28;20204;-58
2024/03/27 01:57:53;;;;;;;7.33;6.63;;;11.30;99.90;;;;;;5044152;28;20219;-58
2024/03/27 02:00:20;;;;;;;8.57;7.00;;;11.30;99.90;;;;;;5081389;28;20196;-58
2024/03/27 02:02:46;;;;;;;8.87;6.93;;;11.30;99.90;;;;;;5058286;28;20198;-58
2024/03/27 02:05:13;;;;;;;7.80;7.00;;;11.30;99.90;;;;;;5067990;28;20201;-58
2024/03/27 02:07:40;;;;;;;16.03;7.50;;;11.40;99.90;;;;;;5082036;28;20208;-58
2024/03/27 02:10:10;;;;;;;8.77;7.60;;;11.30;99.90;;;;;;5078273;28;20571;-58
2024/03/27 02:12:41;;;;;;;8.60;7.70;;;11.30;99.90;;;;;;5071075;28;20209;-58
2024/03/27 02:15:08;;;;;;;14.37;8.27;;;11.30;99.90;;;;;;5075555;28;20274;-58
2024/03/27 02:17:34;;;;;;;8.47;7.43;;;11.30;99.90;;;;;;5068455;28;20201;-57
2024/03/27 02:20:01;;;;;;;8.23;7.43;;;11.40;99.90;;;;;;5075569;28;20202;-58
2024/03/27 02:22:28;;;;;;;11.47;7.73;;;11.30;99.90;;;;;;5074557;28;20249;-58
2024/03/27 02:25:05;;;;;;;9.27;7.23;;;11.30;99.90;;;;;;5083435;28;20201;-58
2024/03/27 02:27:32;;;;;;;12.97;8.50;;;11.20;99.90;;;;;;5072318;28;20653;-58
2024/03/27 02:29:58;;;;;;;11.73;8.70;;;11.30;99.90;;;;;;5083462;28;20200;-58
2024/03/27 02:32:24;;;;;;;10.70;8.73;;;11.30;99.90;;;;;;5069828;28;20208;-58
2024/03/27 02:34:50;;;;;;;12.17;8.83;;;11.30;99.90;;;;;;5071808;28;20690;-58
2024/03/27 02:37:16;;;;;;;15.20;9.17;;;11.30;99.90;;;;;;5069631;28;20217;-58
2024/03/27 02:39:42;;;;;;;10.80;9.10;;;11.30;99.90;;;;;;5070716;28;20195;-57
2024/03/27 02:42:08;;;;;;;17.73;9.70;;;11.30;99.90;;;;;;5072643;28;20215;-57
2024/03/27 02:44:35;;;;;;;11.87;9.27;;;11.30;99.90;;;;;;5071812;28;20200;-57
2024/03/27 02:47:01;;;;;;;11.20;9.27;;;11.30;99.90;;;;;;5075271;28;20226;-58
2024/03/27 02:49:27;;;;;;;12.57;9.50;;;11.30;99.90;;;;;;5067477;28;20692;-58
2024/03/27 02:51:54;;;;;;;15.33;9.33;;;11.30;99.90;;;;;;5074415;28;20707;-58
2024/03/27 02:54:20;;;;;;;11.60;9.53;;;11.30;99.90;;;;;;5073138;28;20245;-58
2024/03/27 02:56:46;;;;;;;16.77;10.00;;;11.30;99.90;;;;;;5075180;28;20220;-57
2024/03/27 02:59:12;;;;;;;20.57;8.90;;;11.30;99.90;;;;;;5052909;28;20230;-57
2024/03/27 03:01:38;;;;;;;11.40;9.10;;;11.30;99.90;;;;;;5068103;28;20227;-58
2024/03/27 03:04:05;;;;;;;15.10;9.70;;;11.30;99.90;;;;;;5069184;28;20209;-57
2024/03/27 03:06:31;;;;;;;17.90;10.23;;;11.40;99.90;;;;;;5068858;28;20215;-57
2024/03/27 03:08:57;;;;;;;19.30;9.63;;;11.30;99.90;;;;;;5078461;28;20618;-57
2024/03/27 03:11:23;;;;;;;17.37;10.63;;;11.30;99.90;;;;;;5069908;28;20209;-58
2024/03/27 03:13:49;;;;;;;16.13;10.27;;;11.40;99.90;;;;;;5073346;28;20216;-57
2024/03/27 03:16:15;;;;;;;15.53;9.90;;;11.40;99.90;;;;;;5068659;28;20229;-57
2024/03/27 03:18:41;;;;;;;14.33;10.43;;;11.40;99.90;;;;;;5072407;28;20618;-58
2024/03/27 03:21:08;;;;;;;15.67;10.77;;;11.40;99.90;;;;;;5068610;28;20198;-58
2024/03/27 03:23:34;;;;;;;14.27;10.50;;;11.40;99.90;;;;;;5068383;28;20196;-58
2024/03/27 03:26:01;;;;;;;18.83;10.50;;;11.40;99.90;;;;;;5070652;28;20551;-57
2024/03/27 03:28:27;;;;;;;13.07;11.60;;;11.40;99.90;;;;;;5069917;28;20201;-57
2024/03/27 03:30:53;;;;;;;20.93;11.40;;;11.40;99.90;;;;;;5072417;28;20207;-58
2024/03/27 03:33:19;;;;;;;15.67;11.90;;;11.40;99.90;;;;;;5066064;28;20220;-58
2024/03/27 03:35:54;;;;;;;22.77;11.90;;;11.40;99.90;;;;;;5069411;28;20267;-57
2024/03/27 03:38:21;;;;;;;22.43;11.77;;;11.40;99.90;;;;;;5072871;28;20581;-57
2024/03/27 03:41:10;;;;;;;23.63;12.53;;;11.40;99.90;;;;;;5069253;28;20212;-57
2024/03/27 03:43:36;;;;;;;21.93;13.03;;;11.40;99.90;;;;;;5074390;28;20211;-58
2024/03/27 03:46:03;;;;;;;20.30;12.83;;;11.40;99.90;;;;;;5068109;28;20206;-57
2024/03/27 03:48:29;;;;;;;21.97;13.57;;;11.40;99.90;;;;;;5069433;28;20215;-58
2024/03/27 03:50:55;;;;;;;26.57;13.93;;;11.40;99.90;;;;;;5070061;28;20505;-58
2024/03/27 03:53:21;;;;;;;21.27;13.30;;;11.40;99.90;;;;;;5068349;28;20216;-57
2024/03/27 03:55:48;;;;;;;20.77;14.40;;;11.50;99.90;;;;;;5072199;28;20529;-57
2024/03/27 03:58:15;;;;;;;32.60;14.77;;;11.50;99.90;;;;;;5066472;28;20252;-57
2024/03/27 04:00:41;;;;;;;22.70;14.13;;;11.40;99.90;;;;;;5054298;28;20201;-57
2024/03/27 04:03:07;;;;;;;49.47;14.53;;;11.40;99.90;;;;;;5070820;28;20657;-58
2024/03/27 04:05:33;;;;;;;23.63;14.40;;;11.40;99.90;;;;;;5070799;28;20206;-57
2024/03/27 04:08:00;;;;;;;31.83;13.83;;;11.50;99.90;;;;;;5065965;28;20213;-58
2024/03/27 04:10:26;;;;;;;48.73;14.93;;;11.50;99.90;;;;;;5065471;28;20660;-57
2024/03/27 04:12:52;;;;;;;42.23;13.57;;;11.50;99.90;;;;;;5070015;28;20201;-57
2024/03/27 04:15:18;;;;;;;37.83;14.50;;;11.50;99.90;;;;;;5067890;28;20641;-57
2024/03/27 04:17:44;;;;;;;38.17;14.87;;;11.50;99.90;;;;;;5069780;28;20208;-57
2024/03/27 04:20:12;;;;;;;37.40;15.27;;;11.50;99.90;;;;;;5067678;28;20212;-57
2024/03/27 04:22:38;;;;;;;38.73;15.20;;;11.50;99.90;;;;;;5070320;28;20201;-57
2024/03/27 04:25:05;;;;;;;37.70;14.80;;;11.50;99.90;;;;;;5070405;28;20259;-57
2024/03/27 04:27:32;;;;;;;39.63;14.83;;;11.50;99.90;;;;;;5048756;28;20296;-57
2024/03/27 04:29:58;;;;;;;37.37;14.57;;;11.50;99.90;;;;;;5068724;28;20193;-57
2024/03/27 04:32:24;;;;;;;31.13;14.60;;;11.50;99.90;;;;;;5071856;28;20544;-57
2024/03/27 04:34:51;;;;;;;42.20;15.30;;;11.60;99.90;;;;;;5067735;28;20244;-57
2024/03/27 04:37:17;;;;;;;33.10;15.10;;;11.60;99.90;;;;;;5073591;28;20213;-57
2024/03/27 04:39:43;;;;;;;30.50;15.17;;;11.60;99.90;;;;;;5073646;28;20212;-57
2024/03/27 04:42:10;;;;;;;29.07;14.10;;;11.60;99.90;;;;;;5069756;28;20203;-57
2024/03/27 04:44:38;;;;;;;34.33;14.77;;;11.60;99.90;;;;;;5067927;28;20191;-57
2024/03/27 04:47:04;;;;;;;46.20;15.33;;;11.60;99.90;;;;;;5065900;28;20203;-57
2024/03/27 04:49:31;;;;;;;31.63;14.17;;;11.60;99.90;;;;;;5072449;28;20593;-57
2024/03/27 04:51:57;;;;;;;49.30;14.90;;;11.70;99.90;;;;;;5071765;28;20314;-57
2024/03/27 04:54:23;;;;;;;27.20;13.77;;;11.70;99.90;;;;;;5073605;28;20215;-57
2024/03/27 04:56:49;;;;;;;25.67;14.40;;;11.70;99.90;;;;;;5076648;28;20213;-57
2024/03/27 04:59:15;;;;;;;30.63;14.03;;;11.70;99.90;;;;;;5072308;28;20714;-57
2024/03/27 05:01:42;;;;;;;31.10;15.00;;;11.70;99.90;;;;;;5071348;28;20201;-57
2024/03/27 05:04:08;;;;;;;32.10;15.20;;;11.70;99.90;;;;;;5057689;28;20212;-57
2024/03/27 05:06:39;;;;;;;28.60;14.73;;;11.70;99.90;;;;;;5073239;28;20641;-57
2024/03/27 05:09:09;;;;;;;22.37;13.47;;;11.60;99.90;;;;;;5074547;28;20262;-57
2024/03/27 05:11:36;;;;;;;18.10;13.17;;;11.60;99.90;;;;;;5080596;28;20220;-57
2024/03/27 05:14:02;;;;;;;24.87;14.97;;;11.60;99.90;;;;;;5074336;28;20216;-57
2024/03/27 05:16:29;;;;;;;21.30;13.73;;;11.60;99.90;;;;;;5077287;28;20214;-57
2024/03/27 05:18:55;;;;;;;22.07;13.77;;;11.60;99.90;;;;;;5065589;28;20276;-57
2024/03/27 05:21:21;;;;;;;22.13;13.80;;;11.50;99.90;;;;;;5067022;28;20537;-58
2024/03/27 05:23:47;;;;;;;24.30;14.57;;;11.50;99.90;;;;;;5079368;28;20717;-57
2024/03/27 05:26:13;;;;;;;23.23;14.60;;;11.50;99.90;;;;;;5070429;28;20191;-57
2024/03/27 05:28:39;;;;;;;28.37;15.07;;;11.50;99.90;;;;;;5068914;28;20203;-57
2024/03/27 05:31:05;;;;;;;22.13;14.77;;;11.50;99.90;;;;;;5075190;28;20251;-57
2024/03/27 05:33:32;;;;;;;26.53;15.13;;;11.40;99.90;;;;;;5071001;28;20221;-57
2024/03/27 05:35:58;;;;;;;23.53;16.07;;;11.40;99.90;;;;;;5069911;28;20251;-57
2024/03/27 05:38:24;;;;;;;24.03;16.30;;;11.40;99.90;;;;;;5072913;28;20218;-57
2024/03/27 05:40:50;;;;;;;23.53;15.23;;;11.40;99.90;;;;;;5072295;28;20201;-57
2024/03/27 05:43:16;;;;;;;25.47;15.50;;;11.40;99.90;;;;;;5072341;28;20196;-57
2024/03/27 05:45:42;;;;;;;25.73;15.73;;;11.30;99.90;;;;;;5072018;28;20544;-57
2024/03/27 05:48:08;;;;;;;24.70;15.87;;;11.30;99.90;;;;;;5073860;28;20205;-57
2024/03/27 05:50:35;;;;;;;26.97;16.87;;;11.30;99.90;;;;;;5071952;28;20207;-57
2024/03/27 05:53:03;;;;;;;27.37;16.30;;;11.30;99.90;;;;;;5070911;28;20212;-57
2024/03/27 05:55:29;;;;;;;27.43;16.23;;;11.30;99.90;;;;;;5067181;28;20235;-58
2024/03/27 05:57:55;;;;;;;29.07;17.87;;;11.30;99.90;;;;;;5075677;28;20259;-57
2024/03/27 06:00:23;;;;;;;25.83;17.20;;;11.30;99.90;;;;;;5070156;28;20620;-57
2024/03/27 06:02:49;;;;;;;31.57;17.83;;;11.30;99.90;;;;;;5073274;28;20233;-57
2024/03/27 06:05:15;;;;;;;26.37;17.00;;;11.30;99.90;;;;;;5071719;28;20198;-57
2024/03/27 06:07:41;;;;;;;28.03;16.37;;;11.30;99.90;;;;;;5069205;28;20201;-57
2024/03/27 06:10:08;;;;;;;30.03;17.60;;;11.30;99.90;;;;;;5069142;28;20204;-58
2024/03/27 06:12:34;;;;;;;29.10;18.13;;;11.30;99.90;;;;;;5069144;28;20209;-57
2024/03/27 06:15:00;;;;;;;28.07;17.37;;;11.30;99.90;;;;;;5072691;28;20519;-57
2024/03/27 06:17:26;;;;;;;29.70;17.90;;;11.30;99.90;;;;;;5068595;28;20212;-57
2024/03/27 06:19:52;;;;;;;31.40;17.77;;;11.30;99.90;;;;;;5069175;28;20210;-57
2024/03/27 06:22:18;;;;;;;32.13;20.47;;;11.30;99.90;;;;;;5069529;28;20197;-57
2024/03/27 06:24:45;;;;;;;35.07;20.57;;;11.40;99.90;;;;;;5069475;28;20216;-58
2024/03/27 06:27:11;;;;;;;39.97;22.10;;;11.30;99.90;;;;;;5069357;28;20212;-57
2024/03/27 06:29:37;;;;;;;37.63;21.30;;;11.40;99.90;;;;;;5070725;28;20543;-57
2024/03/27 06:32:03;;;;;;;35.63;21.27;;;11.40;99.90;;;;;;5069942;28;20565;-57
2024/03/27 06:34:29;;;;;;;40.40;22.07;;;11.40;99.90;;;;;;5072583;28;20235;-57
2024/03/27 06:36:56;;;;;;;39.10;21.77;;;11.40;99.90;;;;;;5070459;28;20209;-57
2024/03/27 06:39:22;;;;;;;38.63;21.43;;;11.50;99.90;;;;;;5072283;28;20208;-57
2024/03/27 06:41:48;;;;;;;40.17;22.37;;;11.50;99.90;;;;;;5072357;28;20246;-57
2024/03/27 06:44:15;;;;;;;36.30;20.53;;;11.50;99.90;;;;;;5072621;28;20302;-58
2024/03/27 06:46:42;;;;;;;39.33;21.90;;;11.50;99.90;;;;;;5076250;28;20263;-57
2024/03/27 06:49:21;;;;;;;40.03;22.13;;;11.60;99.90;;;;;;5070091;28;20222;-57
2024/03/27 06:51:50;;;;;;;42.17;22.03;;;11.60;99.90;;;;;;5070762;28;20230;-57
2024/03/27 06:54:16;;;;;;;38.80;22.57;;;11.60;99.90;;;;;;5068608;28;20204;-57
2024/03/27 06:56:44;;;;;;;46.17;23.73;;;11.70;99.90;;;;;;5071425;28;20650;-57
2024/03/27 06:59:10;;;;;;;49.13;24.40;;;11.70;99.90;;;;;;5070629;28;20199;-57
2024/03/27 07:01:36;;;;;;;54.57;25.03;;;11.70;99.90;;;;;;5068906;28;20206;-58
2024/03/27 07:04:03;;;;;;;49.37;23.27;;;11.70;99.90;;;;;;5069455;28;20199;-57
2024/03/27 07:06:29;;;;;;;63.90;23.70;;;11.70;99.90;;;;;;5069103;28;20203;-58
2024/03/27 07:08:55;;;;;;;54.67;24.40;;;11.80;99.90;;;;;;5072647;28;20269;-57
2024/03/27 07:11:21;;;;;;;58.60;23.57;;;11.80;99.90;;;;;;5071482;28;20204;-57
2024/03/27 07:13:47;;;;;;;62.17;25.47;;;11.80;99.90;;;;;;5067636;28;20216;-57
2024/03/27 07:16:13;;;;;;;59.30;24.13;;;11.90;99.90;;;;;;5067816;28;20218;-57
2024/03/27 07:18:39;;;;;;;53.40;24.33;;;11.90;99.90;;;;;;5067807;28;20194;-57
2024/03/27 07:21:06;;;;;;;58.17;24.60;;;11.90;99.90;;;;;;5069749;28;20337;-57
2024/03/27 07:23:32;;;;;;;56.63;25.60;;;11.90;99.90;;;;;;5070386;28;20190;-57
2024/03/27 07:26:08;;;;;;;55.10;25.37;;;12.00;99.90;;;;;;5070571;28;20645;-57
2024/03/27 07:28:34;;;;;;;54.47;25.33;;;12.00;99.90;;;;;;5070010;28;20201;-57
2024/03/27 07:31:01;;;;;;;53.60;23.70;;;12.00;99.90;;;;;;5054859;28;20206;-57
2024/03/27 07:33:27;;;;;;;59.67;25.27;;;12.00;99.90;;;;;;5070303;28;20206;-57
2024/03/27 07:35:54;;;;;;;58.97;25.10;;;12.10;99.90;;;;;;5058184;28;20248;-57
2024/03/27 07:38:20;;;;;;;56.57;24.10;;;12.10;99.90;;;;;;5056688;28;20264;-57
2024/03/27 07:40:46;;;;;;;58.10;24.87;;;12.10;99.90;;;;;;5050362;28;20202;-57
2024/03/27 07:43:13;;;;;;;56.37;24.87;;;12.10;99.90;;;;;;5056026;28;20521;-57
2024/03/27 07:45:39;;;;;;;63.73;25.80;;;12.10;99.90;;;;;;5062560;28;20659;-57
2024/03/27 07:48:06;;;;;;;58.07;26.43;;;12.10;99.90;;;;;;5054864;28;20212;-58
2024/03/27 07:50:32;;;;;;;65.43;25.80;;;12.10;99.90;;;;;;5055727;28;20206;-58
2024/03/27 07:52:58;;;;;;;64.07;24.60;;;12.10;99.90;;;;;;5053324;28;20258;-58
2024/03/27 07:55:24;;;;;;;55.60;25.40;;;12.20;99.90;;;;;;5054572;28;20519;-57
2024/03/27 07:57:50;;;;;;;65.13;25.93;;;12.20;99.90;;;;;;5052322;28;20212;-57
2024/03/27 08:00:18;;;;;;;64.20;24.97;;;12.20;99.90;;;;;;5057182;28;20205;-58
2024/03/27 08:02:44;;;;;;;59.67;24.80;;;12.30;99.90;;;;;;5056179;28;20197;-58
2024/03/27 08:05:10;;;;;;;56.80;26.17;;;12.30;99.90;;;;;;5052675;28;20624;-58
2024/03/27 08:07:37;;;;;;;60.17;24.67;;;12.30;99.90;;;;;;5050664;28;20209;-58
2024/03/27 08:10:03;;;;;;;55.97;25.30;;;12.40;99.90;;;;;;5054082;28;20197;-58
2024/03/27 08:12:30;;;;;;;53.33;24.67;;;12.40;99.90;;;;;;5059988;28;20210;-57
2024/03/27 08:14:56;;;;;;;50.77;25.60;;;12.40;99.90;;;;;;5058994;28;20193;-57
2024/03/27 08:17:22;;;;;;;56.60;25.80;;;12.50;99.90;;;;;;5042334;28;20228;-58
2024/03/27 08:19:49;;;;;;;56.60;25.97;;;12.60;99.90;;;;;;5058708;28;20517;-58
2024/03/27 08:22:15;;;;;;;59.67;26.13;;;12.60;99.90;;;;;;5058566;28;20627;-58
2024/03/27 08:24:42;;;;;;;49.93;26.33;;;12.60;99.90;;;;;;5059896;28;20627;-58
2024/03/27 08:27:08;;;;;;;59.27;27.17;;;12.70;99.90;;;;;;5056692;28;20205;-57
2024/03/27 08:29:34;;;;;;;49.30;25.80;;;12.70;99.90;;;;;;5055919;28;20204;-58
2024/03/27 08:32:01;;;;;;;59.07;24.87;;;12.70;99.90;;;;;;5059328;28;20622;-58
2024/03/27 08:34:27;;;;;;;52.70;23.93;;;12.70;99.90;;;;;;5059099;28;20233;-58
2024/03/27 08:36:55;;;;;;;50.83;23.77;;;12.80;99.90;;;;;;5070331;28;20247;-58
2024/03/27 08:39:22;;;;;;;45.27;23.50;;;12.80;99.90;;;;;;5070177;28;20221;-58
2024/03/27 08:41:48;;;;;;;50.27;24.57;;;12.90;99.90;;;;;;5072567;28;20194;-58
2024/03/27 08:44:17;;;;;;;50.47;24.33;;;12.90;99.90;;;;;;5075469;28;20205;-58
2024/03/27 08:46:44;;;;;;;43.27;23.37;;;13.00;99.90;;;;;;5069107;28;20301;-58
2024/03/27 08:49:13;;;;;;;43.50;23.03;;;13.10;99.90;;;;;;5073294;28;20205;-58
2024/03/27 08:51:39;;;;;;;46.10;22.40;;;13.10;99.90;;;;;;5072363;28;20195;-58
2024/03/27 08:54:05;;;;;;;48.40;21.43;;;13.10;99.90;;;;;;5076339;28;20211;-58
2024/03/27 08:56:32;;;;;;;36.57;20.97;;;13.20;99.90;;;;;;5071683;28;20585;-57
2024/03/27 08:58:58;;;;;;;37.67;20.73;;;13.20;99.90;;;;;;5075466;28;20216;-58
2024/03/27 09:01:24;;;;;;;39.07;20.67;;;13.20;99.90;;;;;;5057680;28;20224;-59
2024/03/27 09:03:50;;;;;;;42.87;21.53;;;13.20;99.90;;;;;;5073136;28;20200;-58
2024/03/27 09:06:16;;;;;;;41.40;20.47;;;13.20;99.90;;;;;;5073981;28;20212;-59
2024/03/27 09:08:42;;;;;;;37.77;20.53;;;13.30;99.90;;;;;;5073786;28;20252;-58
2024/03/27 09:11:09;;;;;;;38.13;18.70;;;13.30;99.90;;;;;;5075185;28;20568;-57
2024/03/27 09:13:36;;;;;;;33.17;20.00;;;13.40;99.90;;;;;;5078333;28;20227;-57
2024/03/27 09:16:03;;;;;;;39.97;20.97;;;13.40;99.90;;;;;;5068600;28;20354;-57
2024/03/27 09:18:29;;;;;;;34.93;19.30;;;13.40;99.90;;;;;;5070987;28;20307;-57
2024/03/27 09:21:00;;;;;;;35.63;20.10;;;13.40;99.90;;;;;;5071322;28;20198;-58
2024/03/27 09:23:27;;;;;;;36.03;20.90;;;13.40;99.90;;;;;;5067078;28;20662;-57
2024/03/27 09:25:57;;;;;;;37.13;20.53;;;13.40;99.90;;;;;;5054762;28;20213;-58
2024/03/27 09:28:25;;;;;;;36.27;20.13;;;13.40;99.90;;;;;;5073718;28;20195;-57
2024/03/27 09:30:51;;;;;;;37.97;19.80;;;13.40;99.90;;;;;;5071761;28;20221;-58
2024/03/27 09:33:18;;;;;;;35.53;19.50;;;13.40;99.90;;;;;;5068111;28;20205;-58
2024/03/27 09:35:48;;;;;;;32.20;19.80;;;13.40;99.90;;;;;;5073858;28;20235;-58
2024/03/27 09:38:14;;;;;;;37.03;20.07;;;13.40;99.90;;;;;;5066009;28;20186;-57
2024/03/27 09:40:44;;;;;;;33.63;19.10;;;13.40;99.90;;;;;;5071466;28;20550;-57
2024/03/27 09:43:15;;;;;;;31.60;17.70;;;13.40;99.90;;;;;;5071963;28;20196;-57
2024/03/27 09:45:45;;;;;;;27.90;17.73;;;13.50;99.90;;;;;;5073285;28;20217;-58
2024/03/27 09:48:13;;;;;;;25.17;16.23;;;13.50;99.90;;;;;;5050793;28;20567;-57
2024/03/27 09:50:39;;;;;;;29.57;16.93;;;13.50;99.90;;;;;;5070021;28;20221;-59
2024/03/27 09:53:11;;;;;;;26.40;15.20;;;13.60;99.90;;;;;;5068283;28;20205;-58
2024/03/27 09:55:38;;;;;;;25.47;14.90;;;13.60;99.90;;;;;;5071258;28;20203;-57
2024/03/27 09:58:11;;;;;;;23.40;14.10;;;13.70;99.90;;;;;;5073245;28;20635;-58
2024/03/27 10:00:39;;;;;;;19.03;12.63;;;13.70;99.90;;;;;;5070101;28;20182;-57
2024/03/27 10:03:05;;;;;;;24.70;13.23;;;13.70;99.90;;;;;;5079283;28;20209;-58
2024/03/27 10:05:33;;;;;;;20.77;12.90;;;13.70;99.90;;;;;;5068802;28;20254;-57
2024/03/27 10:07:59;;;;;;;20.57;13.07;;;13.80;99.90;;;;;;5072279;28;20207;-57
2024/03/27 10:10:26;;;;;;;22.73;12.07;;;13.80;99.90;;;;;;5069872;28;20182;-57
2024/03/27 10:12:53;;;;;;;20.47;14.27;;;13.90;99.90;;;;;;5078858;28;20202;-58
2024/03/27 10:15:19;;;;;;;23.70;13.37;;;13.90;99.90;;;;;;5072839;28;20598;-58
2024/03/27 10:17:45;;;;;;;14.83;10.97;;;14.00;99.90;;;;;;5067996;28;20205;-57
2024/03/27 10:20:11;;;;;;;20.17;12.07;;;14.00;99.90;;;;;;5071774;28;20198;-58
2024/03/27 10:22:39;;;;;;;16.10;11.60;;;14.10;99.90;;;;;;5070986;28;20198;-58
2024/03/27 10:25:07;;;;;;;23.87;12.43;;;14.10;99.90;;;;;;5071697;28;20206;-57
2024/03/27 10:27:34;;;;;;;18.23;13.00;;;14.10;99.90;;;;;;5074463;28;20213;-57
2024/03/27 10:30:01;;;;;;;16.57;12.17;;;14.20;99.90;;;;;;5070888;28;20538;-58
2024/03/27 10:32:28;;;;;;;16.60;12.13;;;14.20;99.90;;;;;;5072498;28;20203;-58
2024/03/27 10:34:55;;;;;;;19.50;12.47;;;14.20;99.90;;;;;;5071766;28;20230;-57
2024/03/27 10:37:23;;;;;;;21.77;12.83;;;14.20;99.90;;;;;;5071364;28;20227;-57
2024/03/27 10:39:51;;;;;;;17.80;11.87;;;14.20;99.90;;;;;;5071026;28;20263;-57
2024/03/27 10:42:27;;;;;;;21.27;12.83;;;14.10;99.90;;;;;;5072452;28;20255;-57
2024/03/27 10:45:00;;;;;;;18.70;12.83;;;14.20;99.90;;;;;;5065390;28;20193;-57
2024/03/27 10:47:32;;;;;;;15.80;12.10;;;14.10;99.90;;;;;;5069437;28;20616;-57
2024/03/27 10:49:59;;;;;;;22.63;13.50;;;14.10;99.90;;;;;;5070242;28;20190;-57
2024/03/27 10:52:27;;;;;;;16.53;12.90;;;14.10;99.90;;;;;;5071688;28;20194;-57
2024/03/27 10:54:54;;;;;;;22.97;13.27;;;14.10;99.90;;;;;;5070038;28;20202;-58
2024/03/27 10:57:21;;;;;;;26.43;12.87;;;14.20;99.90;;;;;;5069626;28;20218;-57
2024/03/27 10:59:50;;;;;;;19.83;12.20;;;14.20;99.90;;;;;;5070676;28;20213;-57
2024/03/27 11:02:21;;;;;;;16.90;11.97;;;14.30;99.90;;;;;;5056294;28;20213;-57
2024/03/27 11:04:59;;;;;;;16.27;12.20;;;14.40;99.90;;;;;;5068481;28;20196;-58
2024/03/27 11:07:25;;;;;;;23.10;12.30;;;14.40;99.90;;;;;;5070911;28;20205;-58
2024/03/27 11:09:53;;;;;;;18.80;11.07;;;14.50;99.90;;;;;;5068896;28;20205;-59
2024/03/27 11:12:21;;;;;;;15.47;11.43;;;14.60;99.90;;;;;;5083131;28;20221;-58
2024/03/27 11:14:48;;;;;;;14.57;11.23;;;14.70;99.90;;;;;;5071187;28;20643;-57
2024/03/27 11:17:15;;;;;;;18.60;10.47;;;14.70;99.90;;;;;;5070316;28;20259;-58
2024/03/27 11:19:43;;;;;;;13.57;9.30;;;14.80;99.90;;;;;;5070496;28;20624;-58
2024/03/27 11:22:14;;;;;;;14.27;10.03;;;14.90;99.90;;;;;;5068880;28;20763;-57
2024/03/27 11:24:44;;;;;;;15.77;9.60;;;14.90;99.90;;;;;;5072018;28;20202;-58
2024/03/27 11:27:11;;;;;;;17.50;9.80;;;14.90;99.90;;;;;;5071152;28;20243;-57
2024/03/27 11:29:38;;;;;;;15.70;7.93;;;14.90;99.90;;;;;;5074732;28;20194;-58
2024/03/27 11:32:06;;;;;;;10.83;8.27;;;15.00;99.90;;;;;;5071257;28;20201;-58
2024/03/27 11:34:33;;;;;;;10.50;8.07;;;15.10;99.90;;;;;;5063001;28;20292;-59
2024/03/27 11:37:00;;;;;;;10.63;7.60;;;15.20;99.90;;;;;;5047541;28;20223;-57
2024/03/27 11:39:27;;;;;;;11.83;7.60;;;15.20;99.90;;;;;;5050079;28;20616;-58
2024/03/27 11:41:54;;;;;;;9.50;6.97;;;15.30;99.90;;;;;;5052426;28;20288;-58
2024/03/27 11:44:20;;;;;;;9.40;7.53;;;15.40;99.90;;;;;;5048518;28;20211;-58
2024/03/27 11:46:47;;;;;;;12.20;7.63;;;15.40;99.90;;;;;;5045708;28;20538;-58
2024/03/27 11:49:13;;;;;;;9.60;7.27;;;15.50;99.90;;;;;;5049688;28;20861;-58
2024/03/27 11:51:39;;;;;;;9.47;7.67;;;15.60;99.90;;;;;;5047521;28;20199;-58
2024/03/27 11:54:06;;;;;;;10.67;7.83;;;15.70;99.90;;;;;;5046530;28;20198;-58
2024/03/27 11:56:36;;;;;;;10.03;7.73;;;15.80;99.90;;;;;;5046573;28;20223;-59
2024/03/27 11:59:03;;;;;;;10.03;7.30;;;15.90;99.90;;;;;;5062217;28;20255;-58
2024/03/27 12:01:30;;;;;;;9.53;7.67;;;15.90;99.90;;;;;;5044803;28;20555;-58
2024/03/27 12:03:59;;;;;;;11.17;7.87;;;16.00;99.90;;;;;;5048234;28;20191;-57
2024/03/27 12:06:25;;;;;;;9.37;6.90;;;16.00;99.90;;;;;;5047112;28;21013;-58
2024/03/27 12:08:52;;;;;;;10.80;7.77;;;16.00;99.90;;;;;;5050394;28;20668;-58
2024/03/27 12:11:22;;;;;;;7.47;6.57;;;16.00;99.90;;;;;;5049709;28;20206;-58
2024/03/27 12:13:50;;;;;;;9.00;5.83;;;15.90;99.90;;;;;;5053771;28;20194;-59
2024/03/27 12:16:16;;;;;;;7.07;6.00;;;15.90;99.90;;;;;;5051901;28;20530;-57
2024/03/27 12:18:44;;;;;;;7.80;6.10;;;15.80;99.90;;;;;;5049002;28;20205;-58
2024/03/27 12:21:15;;;;;;;10.90;6.40;;;15.80;99.90;;;;;;5044262;28;20212;-57
2024/03/27 12:23:43;;;;;;;9.57;6.40;;;15.70;99.90;;;;;;5047596;28;20202;-58
2024/03/27 12:26:20;;;;;;;8.97;6.20;;;15.70;99.90;;;;;;5062635;28;20199;-57
2024/03/27 12:28:51;;;;;;;13.53;8.80;;;15.60;99.90;;;;;;5048159;28;20194;-57
2024/03/27 12:31:22;;;;;;;13.90;9.53;;;15.60;99.90;;;;;;5045432;28;20196;-57